createdAt,value
2019-03-26T00:00:59.772Z,7.70
2019-03-26T00:03:30.422Z,6.60
2019-03-26T00:06:02.192Z,5.80
2019-03-26T00:08:33.029Z,7.43
2019-03-26T00:11:03.509Z,5.80
2019-03-26T00:13:34.240Z,6.90
2019-03-26T00:16:06.805Z,6.30
2019-03-26T00:18:37.226Z,7.93
2019-03-26T00:21:07.782Z,6.27
2019-03-26T00:23:39.303Z,6.93
2019-03-26T00:26:09.729Z,6.77
2019-03-26T00:28:40.470Z,7.80
2019-03-26T00:31:11.061Z,7.10
2019-03-26T00:33:41.672Z,7.60
2019-03-26T00:36:13.344Z,7.07
2019-03-26T00:38:45.812Z,6.83
2019-03-26T00:41:16.303Z,7.10
2019-03-26T00:43:48.194Z,7.37
2019-03-26T00:46:18.617Z,6.17
2019-03-26T00:48:48.972Z,7.77
2019-03-26T00:51:19.415Z,7.37
2019-03-26T00:53:49.757Z,6.23
2019-03-26T00:56:20.318Z,7.47
2019-03-26T00:58:50.756Z,8.17
2019-03-26T01:01:21.346Z,6.20
2019-03-26T01:03:54.817Z,7.10
2019-03-26T01:06:23.817Z,6.30
2019-03-26T01:08:54.240Z,7.47
2019-03-26T01:11:24.555Z,7.67
2019-03-26T01:13:54.908Z,7.77
2019-03-26T01:16:25.307Z,7.33
2019-03-26T01:18:55.863Z,7.33
2019-03-26T01:21:26.363Z,7.10
2019-03-26T01:23:56.861Z,6.60
2019-03-26T01:26:27.533Z,6.87
2019-03-26T01:28:58.964Z,6.53
2019-03-26T01:31:29.336Z,6.13
2019-03-26T01:33:59.842Z,6.80
2019-03-26T01:36:31.385Z,6.30
2019-03-26T01:39:01.735Z,5.17
2019-03-26T01:41:34.036Z,6.10
2019-03-26T01:44:04.621Z,5.77
2019-03-26T01:46:35.145Z,6.57
2019-03-26T01:49:05.741Z,4.70
2019-03-26T01:51:36.106Z,6.77
2019-03-26T01:54:09.821Z,5.20
2019-03-26T01:56:40.517Z,5.53
2019-03-26T01:59:11.061Z,5.17
2019-03-26T02:01:41.767Z,6.30
2019-03-26T02:04:12.203Z,4.80
2019-03-26T02:06:42.801Z,4.90
2019-03-26T02:09:14.444Z,4.80
2019-03-26T02:11:47.034Z,5.27
2019-03-26T02:14:17.473Z,6.10
2019-03-26T02:16:48.113Z,4.70
2019-03-26T02:19:18.703Z,5.33
2019-03-26T02:21:49.062Z,5.50
2019-03-26T02:24:19.637Z,5.47
2019-03-26T02:26:50.194Z,5.77
2019-03-26T02:29:21.089Z,5.63
2019-03-26T02:31:51.524Z,4.60
2019-03-26T02:34:22.977Z,4.57
2019-03-26T02:36:53.362Z,4.37
2019-03-26T02:39:24.572Z,4.07
2019-03-26T02:41:54.881Z,5.73
2019-03-26T02:44:25.612Z,4.47
2019-03-26T02:46:56.014Z,4.90
2019-03-26T02:49:26.724Z,4.23
2019-03-26T02:51:57.375Z,5.33
2019-03-26T02:54:27.793Z,5.13
2019-03-26T02:56:58.190Z,5.60
2019-03-26T02:59:28.557Z,5.20
2019-03-26T03:01:59.138Z,5.50
2019-03-26T03:04:29.916Z,5.60
2019-03-26T03:07:00.830Z,6.00
2019-03-26T03:09:31.320Z,5.53
2019-03-26T03:12:01.779Z,5.53
2019-03-26T03:14:32.330Z,5.47
2019-03-26T03:17:02.814Z,5.93
2019-03-26T03:19:33.302Z,6.00
2019-03-26T03:22:03.683Z,4.90
2019-03-26T03:24:34.176Z,5.70
2019-03-26T03:27:04.699Z,4.67
2019-03-26T03:29:35.972Z,5.40
2019-03-26T03:32:06.388Z,4.93
2019-03-26T03:34:36.755Z,5.20
2019-03-26T03:37:08.029Z,3.50
2019-03-26T03:39:38.514Z,6.10
2019-03-26T03:42:09.026Z,5.03
2019-03-26T03:44:39.375Z,6.17
2019-03-26T03:47:10.378Z,6.00
2019-03-26T03:49:40.832Z,4.43
2019-03-26T03:52:13.350Z,5.03
2019-03-26T03:54:44.393Z,5.70
2019-03-26T03:57:15.489Z,5.93
2019-03-26T03:59:48.252Z,4.80
2019-03-26T04:02:19.603Z,6.40
2019-03-26T04:04:50.193Z,5.00
2019-03-26T04:07:20.827Z,6.00
2019-03-26T04:09:51.318Z,6.67
2019-03-26T04:12:21.642Z,5.53
2019-03-26T04:14:52.096Z,6.60
2019-03-26T04:17:22.419Z,6.60
2019-03-26T04:19:58.483Z,5.63
2019-03-26T04:22:28.921Z,7.33
2019-03-26T04:24:59.402Z,6.50
2019-03-26T04:27:29.966Z,6.13
2019-03-26T04:30:00.748Z,6.70
2019-03-26T04:32:31.314Z,6.87
2019-03-26T04:35:01.934Z,6.80
2019-03-26T04:37:33.005Z,6.17
2019-03-26T04:40:03.584Z,6.03
2019-03-26T04:42:33.964Z,6.90
2019-03-26T04:45:04.981Z,7.87
2019-03-26T04:47:36.400Z,6.97
2019-03-26T04:50:07.685Z,7.60
2019-03-26T04:52:38.093Z,7.50
2019-03-26T04:55:08.632Z,7.60
2019-03-26T04:57:40.201Z,7.30
2019-03-26T05:00:10.790Z,7.73
2019-03-26T05:02:41.116Z,8.73
2019-03-26T05:05:12.484Z,8.60
2019-03-26T05:07:43.069Z,8.80
2019-03-26T05:10:13.419Z,8.27
2019-03-26T05:12:43.798Z,8.93
2019-03-26T05:15:14.208Z,9.10
2019-03-26T05:17:44.598Z,9.37
2019-03-26T05:20:15.248Z,9.10
2019-03-26T05:22:46.045Z,9.53
2019-03-26T05:25:16.668Z,10.60
2019-03-26T05:27:47.194Z,9.60
2019-03-26T05:30:17.951Z,10.30
2019-03-26T05:32:48.367Z,11.47
2019-03-26T05:35:18.866Z,10.70
2019-03-26T05:37:50.293Z,10.97
2019-03-26T05:40:20.709Z,10.27
2019-03-26T05:42:51.177Z,11.07
2019-03-26T05:45:21.808Z,10.73
2019-03-26T05:47:52.288Z,10.40
2019-03-26T05:50:22.814Z,12.27
2019-03-26T05:52:53.361Z,9.43
2019-03-26T05:55:25.177Z,9.33
2019-03-26T05:57:55.929Z,7.90
2019-03-26T06:00:26.525Z,10.60
2019-03-26T06:02:58.036Z,7.60
2019-03-26T06:05:28.393Z,6.67
2019-03-26T06:07:59.064Z,10.83
2019-03-26T06:10:29.509Z,10.80
2019-03-26T06:13:00.178Z,9.27
2019-03-26T06:15:31.715Z,9.57
2019-03-26T06:18:02.107Z,8.07
2019-03-26T06:20:32.641Z,8.90
2019-03-26T06:23:03.440Z,8.97
2019-03-26T06:25:33.802Z,9.33
2019-03-26T06:28:04.426Z,7.50
2019-03-26T06:30:36.684Z,7.30
2019-03-26T06:33:07.141Z,7.77
2019-03-26T06:35:37.564Z,8.07
2019-03-26T06:38:08.988Z,8.53
2019-03-26T06:40:39.456Z,7.40
2019-03-26T06:43:10.049Z,6.53
2019-03-26T06:45:40.533Z,7.20
2019-03-26T06:48:11.143Z,5.07
2019-03-26T06:50:41.637Z,6.33
2019-03-26T06:53:12.026Z,7.87
2019-03-26T06:55:42.810Z,5.80
2019-03-26T06:58:13.328Z,6.60
2019-03-26T07:00:44.012Z,6.70
2019-03-26T07:03:14.562Z,6.80
2019-03-26T07:05:45.040Z,6.23
2019-03-26T07:08:15.867Z,6.80
2019-03-26T07:10:46.497Z,6.63
2019-03-26T07:13:17.281Z,6.57
2019-03-26T07:15:47.909Z,6.33
2019-03-26T07:18:18.345Z,6.50
2019-03-26T07:20:48.845Z,5.43
2019-03-26T07:23:19.503Z,4.97
2019-03-26T07:25:50.659Z,5.87
2019-03-26T07:28:20.989Z,5.03
2019-03-26T07:30:51.425Z,5.13
2019-03-26T07:33:21.900Z,5.13
2019-03-26T07:35:52.869Z,5.53
2019-03-26T07:38:24.317Z,6.03
2019-03-26T07:40:55.732Z,5.80
2019-03-26T07:43:26.137Z,5.23
2019-03-26T07:45:56.558Z,6.20
2019-03-26T07:48:26.971Z,6.47
2019-03-26T07:50:57.507Z,6.40
2019-03-26T07:53:28.324Z,6.00
2019-03-26T07:55:58.837Z,5.47
2019-03-26T07:58:29.562Z,6.10
2019-03-26T08:01:00.155Z,6.93
2019-03-26T08:03:30.605Z,6.47
2019-03-26T08:06:01.597Z,7.00
2019-03-26T08:08:32.517Z,7.70
2019-03-26T08:11:03.102Z,6.50
2019-03-26T08:13:33.790Z,6.93
2019-03-26T08:16:04.475Z,6.60
2019-03-26T08:18:35.349Z,7.87
2019-03-26T08:21:05.942Z,7.93
2019-03-26T08:23:38.432Z,7.07
2019-03-26T08:26:10.085Z,8.40
2019-03-26T08:28:41.112Z,8.30
2019-03-26T08:31:14.227Z,7.67
2019-03-26T08:33:45.244Z,8.10
2019-03-26T08:36:15.865Z,7.87
2019-03-26T08:38:46.716Z,5.10
2019-03-26T08:41:17.305Z,7.77
2019-03-26T08:43:47.881Z,7.80
2019-03-26T08:46:18.698Z,6.40
2019-03-26T08:48:50.101Z,6.30
2019-03-26T08:51:20.999Z,5.27
2019-03-26T08:53:51.569Z,5.33
2019-03-26T08:56:22.418Z,6.50
2019-03-26T08:58:55.997Z,4.87
2019-03-26T09:01:26.427Z,6.17
2019-03-26T09:03:57.087Z,5.23
2019-03-26T09:06:27.568Z,5.97
2019-03-26T09:08:58.373Z,6.30
2019-03-26T09:11:29.071Z,4.57
2019-03-26T09:13:59.532Z,5.87
2019-03-26T09:16:30.029Z,7.43
2019-03-26T09:19:00.668Z,5.53
2019-03-26T09:21:32.783Z,4.17
2019-03-26T09:24:03.584Z,3.77
2019-03-26T09:26:34.416Z,3.30
2019-03-26T09:29:04.821Z,2.80
2019-03-26T09:31:38.531Z,3.80
2019-03-26T09:34:10.064Z,2.77
2019-03-26T09:36:40.904Z,5.17
2019-03-26T09:39:11.430Z,4.33
2019-03-26T09:41:41.959Z,3.17
2019-03-26T09:44:12.364Z,2.30
2019-03-26T09:46:43.670Z,3.90
2019-03-26T09:49:14.522Z,2.47
2019-03-26T09:51:45.244Z,3.47
2019-03-26T09:54:15.836Z,3.70
2019-03-26T09:56:46.702Z,2.27
2019-03-26T09:59:17.112Z,3.13
2019-03-26T10:01:49.985Z,2.70
2019-03-26T10:04:20.428Z,2.50
2019-03-26T10:06:51.248Z,2.83
2019-03-26T10:09:21.594Z,2.07
2019-03-26T10:11:52.301Z,2.80
2019-03-26T10:14:22.884Z,3.50
2019-03-26T10:16:53.624Z,3.17
2019-03-26T10:19:24.454Z,4.17
2019-03-26T10:21:54.993Z,3.70
2019-03-26T10:24:26.113Z,3.60
2019-03-26T10:26:56.729Z,3.40
2019-03-26T10:29:30.429Z,3.10
2019-03-26T10:31:59.630Z,3.87
2019-03-26T10:34:30.033Z,3.40
2019-03-26T10:37:00.861Z,2.93
2019-03-26T10:39:32.360Z,3.07
2019-03-26T10:42:02.694Z,2.90
2019-03-26T10:44:33.188Z,3.30
2019-03-26T10:47:03.654Z,2.90
2019-03-26T10:49:34.439Z,3.27
2019-03-26T10:52:05.071Z,2.67
2019-03-26T10:54:35.684Z,3.00
2019-03-26T10:57:06.633Z,3.10
2019-03-26T10:59:37.500Z,1.53
2019-03-26T11:02:08.606Z,2.27
2019-03-26T11:04:39.384Z,2.97
2019-03-26T11:07:10.057Z,2.77
2019-03-26T11:09:40.451Z,2.30
2019-03-26T11:12:11.069Z,2.80
2019-03-26T11:14:41.661Z,2.40
2019-03-26T11:17:12.448Z,2.77
2019-03-26T11:19:46.170Z,3.33
2019-03-26T11:22:15.285Z,3.23
2019-03-26T11:24:46.134Z,3.67
2019-03-26T11:27:16.727Z,3.87
2019-03-26T11:29:47.320Z,3.30
2019-03-26T11:32:17.794Z,3.40
2019-03-26T11:34:48.541Z,3.20
2019-03-26T11:37:19.319Z,3.70
2019-03-26T11:39:50.745Z,3.77
2019-03-26T11:42:22.115Z,3.27
2019-03-26T11:44:53.687Z,3.47
2019-03-26T11:47:25.739Z,4.40
2019-03-26T11:49:56.167Z,4.13
2019-03-26T11:52:27.002Z,3.80
2019-03-26T11:54:57.589Z,3.20
2019-03-26T11:57:28.640Z,1.13
2019-03-26T11:59:59.040Z,1.87
2019-03-26T12:02:30.264Z,1.40
2019-03-26T12:05:02.278Z,2.27
2019-03-26T12:07:32.963Z,1.70
2019-03-26T12:10:08.493Z,1.33
2019-03-26T12:12:39.533Z,1.20
2019-03-26T12:15:10.347Z,1.30
2019-03-26T12:17:41.104Z,1.77
2019-03-26T12:20:12.054Z,1.40
2019-03-26T12:22:42.952Z,1.83
2019-03-26T12:25:13.939Z,1.60
2019-03-26T12:27:44.852Z,1.70
2019-03-26T12:30:18.889Z,1.57
2019-03-26T12:32:49.858Z,1.90
2019-03-26T12:35:28.421Z,1.70
2019-03-26T12:37:59.716Z,1.60
2019-03-26T12:40:30.962Z,2.03
2019-03-26T12:43:01.728Z,1.80
2019-03-26T12:45:32.326Z,2.00
2019-03-26T12:48:02.994Z,2.23
2019-03-26T12:50:33.821Z,1.30
2019-03-26T12:53:04.688Z,1.07
2019-03-26T12:55:35.891Z,2.07
2019-03-26T12:58:07.261Z,2.20
2019-03-26T13:00:37.643Z,2.00
2019-03-26T13:03:08.321Z,2.53
2019-03-26T13:05:38.771Z,1.60
2019-03-26T13:08:09.711Z,1.87
2019-03-26T13:10:52.792Z,1.40
2019-03-26T13:13:12.899Z,1.63
2019-03-26T13:15:43.376Z,2.20
2019-03-26T13:18:13.951Z,1.67
2019-03-26T13:20:44.467Z,1.90
2019-03-26T13:23:15.236Z,1.53
2019-03-26T13:25:45.796Z,1.90
2019-03-26T13:28:16.529Z,1.10
2019-03-26T13:30:47.055Z,1.10
2019-03-26T13:33:17.787Z,0.97
2019-03-26T13:35:49.644Z,1.10
2019-03-26T13:38:20.415Z,1.40
2019-03-26T13:40:52.537Z,1.43
2019-03-26T13:43:23.906Z,1.00
2019-03-26T13:45:54.674Z,1.40
2019-03-26T13:48:27.534Z,1.77
2019-03-26T13:50:58.283Z,1.37
2019-03-26T13:53:29.308Z,1.10
2019-03-26T13:56:00.117Z,1.00
2019-03-26T13:58:31.075Z,1.27
2019-03-26T14:01:02.639Z,1.00
2019-03-26T14:03:33.997Z,1.73
2019-03-26T14:06:04.745Z,1.37
2019-03-26T14:08:36.262Z,1.00
2019-03-26T14:11:08.946Z,1.40
2019-03-26T14:13:39.703Z,1.30
2019-03-26T14:16:11.692Z,1.73
2019-03-26T14:18:42.193Z,2.00
2019-03-26T14:21:12.876Z,1.90
2019-03-26T14:23:43.367Z,1.50
2019-03-26T14:26:15.785Z,1.83
2019-03-26T14:28:46.383Z,2.60
2019-03-26T14:31:17.017Z,1.37
2019-03-26T14:33:47.450Z,2.50
2019-03-26T14:36:18.632Z,2.23
2019-03-26T14:38:51.890Z,1.70
2019-03-26T14:41:23.727Z,1.80
2019-03-26T14:43:56.819Z,2.40
2019-03-26T14:46:27.485Z,2.03
2019-03-26T14:48:58.042Z,1.30
2019-03-26T14:51:28.660Z,1.50
2019-03-26T14:53:59.337Z,1.30
2019-03-26T14:56:29.673Z,1.20
2019-03-26T14:59:00.718Z,1.30
2019-03-26T15:01:31.379Z,1.43
2019-03-26T15:04:03.629Z,2.17
2019-03-26T15:06:34.800Z,1.23
2019-03-26T15:09:07.531Z,1.10
2019-03-26T15:11:41.160Z,1.57
2019-03-26T15:14:12.833Z,0.90
2019-03-26T15:16:43.975Z,1.30
2019-03-26T15:19:16.392Z,2.13
2019-03-26T15:21:46.962Z,1.57
2019-03-26T15:24:18.405Z,1.80
2019-03-26T15:26:49.108Z,1.73
2019-03-26T15:29:21.012Z,1.50
2019-03-26T15:31:51.683Z,1.60
2019-03-26T15:34:35.402Z,1.50
2019-03-26T15:36:54.426Z,0.90
2019-03-26T15:39:25.022Z,1.50
2019-03-26T15:41:56.468Z,1.53
2019-03-26T15:44:27.443Z,1.87
2019-03-26T15:46:58.964Z,1.50
2019-03-26T15:49:30.146Z,1.93
2019-03-26T15:52:01.067Z,1.50
2019-03-26T15:54:31.987Z,2.60
2019-03-26T15:57:02.516Z,1.70
2019-03-26T15:59:34.140Z,2.73
2019-03-26T16:02:04.909Z,1.80
2019-03-26T16:04:35.633Z,1.20
2019-03-26T16:07:07.702Z,2.53
2019-03-26T16:09:38.160Z,1.50
2019-03-26T16:12:09.009Z,2.40
2019-03-26T16:14:39.742Z,1.73
2019-03-26T16:17:10.321Z,2.33
2019-03-26T16:19:41.119Z,3.20
2019-03-26T16:22:11.701Z,1.87
2019-03-26T16:24:42.120Z,1.87
2019-03-26T16:27:12.587Z,2.07
2019-03-26T16:29:43.526Z,3.40
2019-03-26T16:32:13.940Z,2.50
2019-03-26T16:34:45.502Z,3.50
2019-03-26T16:37:15.875Z,2.57
2019-03-26T16:39:46.268Z,2.00
2019-03-26T16:42:17.779Z,2.40
2019-03-26T16:44:48.589Z,2.40
2019-03-26T16:47:19.445Z,2.40
2019-03-26T16:49:50.449Z,2.23
2019-03-26T16:52:20.937Z,2.93
2019-03-26T16:54:51.493Z,3.37
2019-03-26T16:57:22.852Z,3.40
2019-03-26T16:59:54.031Z,2.60
2019-03-26T17:02:24.715Z,3.57
2019-03-26T17:04:55.653Z,3.70
2019-03-26T17:07:26.091Z,3.33
2019-03-26T17:09:58.193Z,3.20
2019-03-26T17:12:28.800Z,3.47
2019-03-26T17:14:59.532Z,2.10
2019-03-26T17:17:30.400Z,4.60
2019-03-26T17:20:01.343Z,3.27
2019-03-26T17:22:32.219Z,3.33
2019-03-26T17:25:03.098Z,3.13
2019-03-26T17:27:33.616Z,3.70
2019-03-26T17:30:05.322Z,3.90
2019-03-26T17:32:37.597Z,3.17
2019-03-26T17:35:09.050Z,2.73
2019-03-26T17:37:40.074Z,2.77
2019-03-26T17:40:10.681Z,2.10
2019-03-26T17:42:42.185Z,3.20
2019-03-26T17:45:12.761Z,3.90
2019-03-26T17:47:43.711Z,2.57
2019-03-26T17:50:14.216Z,2.70
2019-03-26T17:52:44.712Z,4.40
2019-03-26T17:55:15.294Z,2.87
2019-03-26T17:57:45.653Z,3.90
2019-03-26T18:00:19.432Z,3.43
2019-03-26T18:02:49.791Z,2.33
2019-03-26T18:05:26.097Z,3.20
2019-03-26T18:07:56.950Z,3.50
2019-03-26T18:10:28.724Z,2.50
2019-03-26T18:13:00.133Z,3.00
2019-03-26T18:15:30.545Z,1.90
2019-03-26T18:18:00.871Z,3.17
2019-03-26T18:20:32.720Z,3.40
2019-03-26T18:23:03.692Z,4.10
2019-03-26T18:25:34.358Z,3.40
2019-03-26T18:28:04.895Z,3.80
2019-03-26T18:30:35.846Z,3.30
2019-03-26T18:33:07.061Z,3.40
2019-03-26T18:35:39.921Z,2.93
2019-03-26T18:38:10.636Z,2.57
2019-03-26T18:40:42.210Z,2.87
2019-03-26T18:43:15.400Z,4.27
2019-03-26T18:45:46.141Z,3.80
2019-03-26T18:48:16.671Z,4.00
2019-03-26T18:50:47.473Z,1.50
2019-03-26T18:53:18.043Z,2.77
2019-03-26T18:55:48.553Z,3.57
2019-03-26T18:58:19.162Z,3.00
2019-03-26T19:00:50.334Z,4.07
2019-03-26T19:03:23.914Z,7.43
2019-03-26T19:05:54.634Z,5.20
2019-03-26T19:08:25.045Z,2.87
2019-03-26T19:10:55.633Z,2.80
2019-03-26T19:13:26.331Z,5.37
2019-03-26T19:15:56.923Z,2.97
2019-03-26T19:18:27.555Z,6.43
2019-03-26T19:21:02.290Z,2.93
2019-03-26T19:23:30.457Z,3.03
2019-03-26T19:26:01.194Z,2.57
2019-03-26T19:28:31.849Z,2.57
2019-03-26T19:31:03.333Z,6.03
2019-03-26T19:33:33.789Z,2.50
2019-03-26T19:36:04.512Z,1.90
2019-03-26T19:38:34.897Z,3.80
2019-03-26T19:41:05.930Z,3.77
2019-03-26T19:43:36.542Z,4.07
2019-03-26T19:46:06.987Z,5.77
2019-03-26T19:48:37.669Z,3.60
2019-03-26T19:51:08.583Z,3.67
2019-03-26T19:53:38.950Z,3.20
2019-03-26T19:56:10.745Z,3.50
2019-03-26T19:58:41.285Z,6.37
2019-03-26T20:01:12.764Z,2.00
2019-03-26T20:03:44.199Z,2.93
2019-03-26T20:06:14.599Z,3.17
2019-03-26T20:08:45.377Z,4.30
2019-03-26T20:11:15.887Z,4.27
2019-03-26T20:13:47.593Z,5.40
2019-03-26T20:16:19.582Z,4.30
2019-03-26T20:18:50.575Z,3.77
2019-03-26T20:21:21.276Z,4.27
2019-03-26T20:23:51.837Z,3.23
2019-03-26T20:26:22.219Z,2.87
2019-03-26T20:28:54.205Z,2.37
2019-03-26T20:31:24.913Z,2.93
2019-03-26T20:33:55.724Z,2.03
2019-03-26T20:36:27.189Z,3.17
2019-03-26T20:38:57.758Z,2.47
2019-03-26T20:41:31.078Z,2.63
2019-03-26T20:44:01.693Z,2.30
2019-03-26T20:46:32.295Z,2.70
2019-03-26T20:49:02.735Z,2.17
2019-03-26T20:51:34.502Z,1.90
2019-03-26T20:54:05.338Z,2.90
2019-03-26T20:56:36.132Z,2.20
2019-03-26T20:59:06.655Z,2.90
2019-03-26T21:01:37.882Z,2.43
2019-03-26T21:04:08.356Z,2.80
2019-03-26T21:06:42.399Z,2.97
2019-03-26T21:09:14.145Z,2.50
2019-03-26T21:11:44.777Z,2.10
2019-03-26T21:14:15.909Z,3.37
2019-03-26T21:16:46.794Z,2.47
2019-03-26T21:19:18.576Z,3.20
2019-03-26T21:21:49.183Z,4.80
2019-03-26T21:24:19.776Z,5.17
2019-03-26T21:26:50.309Z,5.30
2019-03-26T21:29:21.475Z,4.90
2019-03-26T21:31:51.951Z,3.90
2019-03-26T21:34:30.300Z,4.07
2019-03-26T21:36:57.581Z,3.37
2019-03-26T21:39:28.444Z,3.53
2019-03-26T21:41:59.306Z,3.50
2019-03-26T21:44:31.000Z,4.07
2019-03-26T21:47:02.106Z,4.93
2019-03-26T21:49:33.320Z,7.30
2019-03-26T21:52:04.117Z,7.77
2019-03-26T21:54:35.725Z,6.40
2019-03-26T21:57:06.124Z,5.13
2019-03-26T21:59:36.505Z,5.70
2019-03-26T22:02:07.112Z,4.03
2019-03-26T22:04:38.227Z,3.90
2019-03-26T22:07:08.757Z,5.70
2019-03-26T22:09:39.133Z,6.60
2019-03-26T22:12:09.634Z,6.30
2019-03-26T22:14:40.519Z,5.80
2019-03-26T22:17:11.261Z,7.13
2019-03-26T22:19:42.025Z,7.83
2019-03-26T22:22:12.773Z,10.10
2019-03-26T22:24:43.555Z,7.63
2019-03-26T22:27:14.076Z,6.60
2019-03-26T22:29:45.152Z,5.40
2019-03-26T22:32:16.786Z,5.67
2019-03-26T22:34:47.367Z,5.73
2019-03-26T22:37:17.861Z,7.23
2019-03-26T22:39:48.361Z,6.00
2019-03-26T22:42:18.827Z,6.47
2019-03-26T22:44:51.735Z,6.70
2019-03-26T22:47:22.423Z,7.00
2019-03-26T22:49:53.037Z,9.80
2019-03-26T22:52:23.528Z,7.50
2019-03-26T22:54:54.487Z,7.17
2019-03-26T22:57:25.035Z,7.70
2019-03-26T22:59:55.426Z,7.37
2019-03-26T23:02:25.745Z,7.17
2019-03-26T23:04:56.214Z,5.33
2019-03-26T23:07:26.665Z,4.13
2019-03-26T23:09:57.464Z,4.40
2019-03-26T23:12:28.017Z,5.40
2019-03-26T23:14:58.731Z,5.00
2019-03-26T23:17:29.084Z,5.40
2019-03-26T23:19:59.756Z,6.20
2019-03-26T23:22:31.600Z,7.40
2019-03-26T23:25:02.037Z,7.07
2019-03-26T23:27:32.780Z,6.50
2019-03-26T23:30:05.263Z,6.50
2019-03-26T23:32:35.717Z,5.10
2019-03-26T23:35:06.376Z,5.03
2019-03-26T23:37:36.930Z,4.77
2019-03-26T23:40:07.664Z,4.53
2019-03-26T23:42:38.118Z,4.50
2019-03-26T23:45:08.856Z,3.90
2019-03-26T23:47:39.436Z,4.53
2019-03-26T23:50:10.049Z,3.90
2019-03-26T23:52:41.091Z,4.30
2019-03-26T23:55:11.763Z,3.97
2019-03-26T23:57:43.913Z,3.83
